createdAt,value
2017-07-17T00:00:11.841Z,80.30
2017-07-17T00:02:40.531Z,80.10
2017-07-17T00:05:09.271Z,80.10
2017-07-17T00:07:38.720Z,80.50
2017-07-17T00:10:07.430Z,80.50
2017-07-17T00:12:36.303Z,80.20
2017-07-17T00:15:04.994Z,80.20
2017-07-17T00:17:33.679Z,80.00
2017-07-17T00:20:02.401Z,78.40
2017-07-17T00:22:31.078Z,77.30
2017-07-17T00:24:59.758Z,76.80
2017-07-17T00:27:28.459Z,77.30
2017-07-17T00:29:57.169Z,76.10
2017-07-17T00:32:25.872Z,75.80
2017-07-17T00:34:54.610Z,75.90
2017-07-17T00:37:23.304Z,75.90
2017-07-17T00:39:52.009Z,77.20
2017-07-17T00:42:20.731Z,78.30
2017-07-17T00:44:49.450Z,76.80
2017-07-17T00:47:18.043Z,76.80
2017-07-17T00:49:46.779Z,78.10
2017-07-17T00:52:15.475Z,78.30
2017-07-17T00:54:44.168Z,77.00
2017-07-17T00:57:12.908Z,76.80
2017-07-17T00:59:41.590Z,77.30
2017-07-17T01:02:10.291Z,77.50
2017-07-17T01:04:39.002Z,79.40
2017-07-17T01:07:07.698Z,78.40
2017-07-17T01:09:36.386Z,78.30
2017-07-17T01:12:05.093Z,80.70
2017-07-17T01:14:33.780Z,79.80
2017-07-17T01:17:02.478Z,80.10
2017-07-17T01:19:31.163Z,79.30
2017-07-17T01:21:59.843Z,79.60
2017-07-17T01:24:28.519Z,80.00
2017-07-17T01:26:57.207Z,80.00
2017-07-17T01:29:25.884Z,80.60
2017-07-17T01:31:54.571Z,80.60
2017-07-17T01:34:23.310Z,80.20
2017-07-17T01:36:51.999Z,80.50
2017-07-17T01:39:20.696Z,80.30
2017-07-17T01:41:49.044Z,80.80
2017-07-17T01:44:17.731Z,81.70
2017-07-17T01:46:46.436Z,81.70
2017-07-17T01:49:14.932Z,81.40
2017-07-17T01:51:43.624Z,81.30
2017-07-17T01:54:11.619Z,81.20
2017-07-17T01:56:39.997Z,80.30
2017-07-17T01:59:08.684Z,79.90
2017-07-17T02:01:37.371Z,79.20
2017-07-17T02:04:06.070Z,79.90
2017-07-17T02:06:34.756Z,79.50
2017-07-17T02:09:03.086Z,79.60
2017-07-17T02:11:31.788Z,78.80
2017-07-17T02:14:00.458Z,79.30
2017-07-17T02:16:29.152Z,79.20
2017-07-17T02:18:57.843Z,79.90
2017-07-17T02:21:26.531Z,79.50
2017-07-17T02:23:55.254Z,79.40
2017-07-17T02:26:23.955Z,80.00
2017-07-17T02:28:52.692Z,80.10
2017-07-17T02:31:21.380Z,78.50
2017-07-17T02:33:50.086Z,76.90
2017-07-17T02:36:18.758Z,75.80
2017-07-17T02:38:47.438Z,75.10
2017-07-17T02:41:16.173Z,75.50
2017-07-17T02:43:44.867Z,75.70
2017-07-17T02:46:13.553Z,74.40
2017-07-17T02:48:42.270Z,74.20
2017-07-17T02:51:10.967Z,75.30
2017-07-17T02:53:39.719Z,75.90
2017-07-17T02:56:08.458Z,76.60
2017-07-17T02:58:37.173Z,76.70
2017-07-17T03:01:05.870Z,76.40
2017-07-17T03:03:34.633Z,76.30
2017-07-17T03:06:03.430Z,76.30
2017-07-17T03:08:32.148Z,76.40
2017-07-17T03:11:00.960Z,76.60
2017-07-17T03:13:29.692Z,77.40
2017-07-17T03:15:58.421Z,77.90
2017-07-17T03:18:27.189Z,77.60
2017-07-17T03:20:57.170Z,78.10
2017-07-17T03:23:25.175Z,78.10
2017-07-17T03:25:53.953Z,77.00
2017-07-17T03:28:22.672Z,77.40
2017-07-17T03:30:51.992Z,76.70
2017-07-17T03:33:20.749Z,77.20
2017-07-17T03:35:49.475Z,77.30
2017-07-17T03:38:18.176Z,76.90
2017-07-17T03:40:46.878Z,75.60
2017-07-17T03:43:15.593Z,75.80
2017-07-17T03:45:44.322Z,75.30
2017-07-17T03:48:13.075Z,74.00
2017-07-17T03:50:41.843Z,73.50
2017-07-17T03:53:10.563Z,73.80
2017-07-17T03:55:39.312Z,73.50
2017-07-17T03:58:08.028Z,73.50
2017-07-17T04:00:37.524Z,71.90
2017-07-17T04:03:06.294Z,71.90
2017-07-17T04:05:35.024Z,71.80
2017-07-17T04:08:03.741Z,72.50
2017-07-17T04:10:32.455Z,72.70
2017-07-17T04:13:01.144Z,72.60
2017-07-17T04:15:29.867Z,72.80
2017-07-17T04:17:58.870Z,72.50
2017-07-17T04:20:27.309Z,71.20
2017-07-17T04:22:56.055Z,72.80
2017-07-17T04:25:24.782Z,71.70
2017-07-17T04:27:53.463Z,75.10
2017-07-17T04:30:22.180Z,74.00
2017-07-17T04:32:50.881Z,75.20
2017-07-17T04:35:20.347Z,70.70
2017-07-17T04:37:48.834Z,70.50
2017-07-17T04:40:17.327Z,69.40
2017-07-17T04:42:46.024Z,68.90
2017-07-17T04:45:14.870Z,67.90
2017-07-17T04:47:43.345Z,67.90
2017-07-17T04:50:11.903Z,67.30
2017-07-17T04:52:40.411Z,67.20
2017-07-17T04:55:08.896Z,66.80
2017-07-17T04:57:37.356Z,69.40
2017-07-17T05:00:05.850Z,68.30
2017-07-17T05:02:34.351Z,67.50
2017-07-17T05:05:02.803Z,68.10
2017-07-17T05:07:31.254Z,68.10
2017-07-17T05:09:59.710Z,68.00
2017-07-17T05:12:28.180Z,65.40
2017-07-17T05:14:56.752Z,65.30
2017-07-17T05:17:25.253Z,64.80
2017-07-17T05:19:53.763Z,64.50
2017-07-17T05:22:22.234Z,65.70
2017-07-17T05:24:50.795Z,64.40
2017-07-17T05:27:19.283Z,64.40
2017-07-17T05:29:47.605Z,62.70
2017-07-17T05:32:15.926Z,63.00
2017-07-17T05:34:44.221Z,64.50
2017-07-17T05:37:12.509Z,62.30
2017-07-17T05:39:41.178Z,62.60
2017-07-17T05:42:09.659Z,63.50
2017-07-17T05:44:38.157Z,61.30
2017-07-17T05:47:07.445Z,59.90
2017-07-17T05:49:35.943Z,59.90
2017-07-17T05:52:04.402Z,59.20
2017-07-17T05:54:32.980Z,59.20
2017-07-17T05:57:01.502Z,57.60
2017-07-17T05:59:30.007Z,58.20
2017-07-17T06:01:58.519Z,58.30
2017-07-17T06:04:26.977Z,57.60
2017-07-17T06:06:55.461Z,56.70
2017-07-17T06:09:24.100Z,56.90
2017-07-17T06:11:52.539Z,56.50
2017-07-17T06:14:21.025Z,55.60
2017-07-17T06:16:49.483Z,54.40
2017-07-17T06:19:17.974Z,55.00
2017-07-17T06:21:46.455Z,55.50
2017-07-17T06:24:14.938Z,54.20
2017-07-17T06:26:43.411Z,52.30
2017-07-17T06:29:11.896Z,53.90
2017-07-17T06:31:40.391Z,52.50
2017-07-17T06:34:08.850Z,51.10
2017-07-17T06:36:37.287Z,51.90
2017-07-17T06:39:05.652Z,52.40
2017-07-17T06:41:34.112Z,47.30
2017-07-17T06:44:02.554Z,48.10
2017-07-17T06:46:31.022Z,46.40
2017-07-17T06:48:59.493Z,45.30
2017-07-17T06:51:27.931Z,45.10
2017-07-17T06:53:56.389Z,45.60
2017-07-17T06:56:24.830Z,45.40
2017-07-17T06:58:53.287Z,42.70
2017-07-17T07:01:21.787Z,41.80
2017-07-17T07:03:50.264Z,41.30
2017-07-17T07:06:18.735Z,40.30
2017-07-17T07:08:47.201Z,42.10
2017-07-17T07:11:15.677Z,39.20
2017-07-17T07:13:44.135Z,39.70
2017-07-17T07:16:12.585Z,40.20
2017-07-17T07:18:41.054Z,38.20
2017-07-17T07:21:09.527Z,40.30
2017-07-17T07:23:38.063Z,38.40
2017-07-17T07:26:06.521Z,36.10
2017-07-17T07:28:34.973Z,37.50
2017-07-17T07:31:03.451Z,35.90
2017-07-17T07:33:31.957Z,36.00
2017-07-17T07:36:00.214Z,35.70
2017-07-17T07:38:28.348Z,35.00
2017-07-17T07:40:56.893Z,34.30
2017-07-17T07:43:25.357Z,27.80
2017-07-17T07:45:53.850Z,31.50
2017-07-17T07:48:22.323Z,31.90
2017-07-17T07:50:50.794Z,31.60
2017-07-17T07:53:19.330Z,25.60
2017-07-17T07:55:47.766Z,26.50
2017-07-17T07:58:16.281Z,27.60
2017-07-17T08:00:44.768Z,27.40
2017-07-17T08:03:13.198Z,26.90
2017-07-17T08:05:41.663Z,26.50
2017-07-17T08:08:10.911Z,25.50
2017-07-17T08:10:39.338Z,25.50
2017-07-17T08:13:07.792Z,25.80
2017-07-17T08:15:36.256Z,27.80
2017-07-17T08:18:04.705Z,27.00
2017-07-17T08:20:33.174Z,30.00
2017-07-17T08:23:01.650Z,26.60
2017-07-17T08:25:30.091Z,27.20
2017-07-17T08:27:58.548Z,25.60
2017-07-17T08:30:27.283Z,23.70
2017-07-17T08:32:55.761Z,27.70
2017-07-17T08:35:24.247Z,27.80
2017-07-17T08:37:52.758Z,27.20
2017-07-17T08:40:21.193Z,24.20
2017-07-17T08:42:49.682Z,22.60
2017-07-17T08:45:18.165Z,23.20
2017-07-17T08:47:46.627Z,22.30
2017-07-17T08:50:15.092Z,27.30
2017-07-17T08:52:43.574Z,24.20
2017-07-17T08:55:12.044Z,27.40
2017-07-17T08:57:40.494Z,23.00
2017-07-17T09:00:08.776Z,23.90
2017-07-17T09:02:37.227Z,22.90
2017-07-17T09:05:05.680Z,28.30
2017-07-17T09:07:34.186Z,26.30
2017-07-17T09:10:02.697Z,23.10
2017-07-17T09:12:31.162Z,25.00
2017-07-17T09:14:59.677Z,27.40
2017-07-17T09:17:28.147Z,27.20
2017-07-17T09:19:56.609Z,24.10
2017-07-17T09:22:25.067Z,23.40
2017-07-17T09:24:53.510Z,26.90
2017-07-17T09:27:22.051Z,23.50
2017-07-17T09:29:50.563Z,25.10
2017-07-17T09:32:18.986Z,25.00
2017-07-17T09:34:47.439Z,25.10
2017-07-17T09:37:15.890Z,29.00
2017-07-17T09:39:44.377Z,23.40
2017-07-17T09:42:12.809Z,23.00
2017-07-17T09:44:41.303Z,28.20
2017-07-17T09:47:09.750Z,27.90
2017-07-17T09:49:38.213Z,26.80
2017-07-17T09:52:06.691Z,27.80
2017-07-17T09:54:35.121Z,25.00
2017-07-17T09:57:03.585Z,26.10
2017-07-17T09:59:32.102Z,26.70
2017-07-17T10:02:00.568Z,22.80
2017-07-17T10:04:29.025Z,23.50
2017-07-17T10:06:57.495Z,25.20
2017-07-17T10:09:25.951Z,24.10
2017-07-17T10:11:54.458Z,23.70
2017-07-17T10:14:23.169Z,24.90
2017-07-17T10:16:51.635Z,26.20
2017-07-17T10:19:20.080Z,26.50
2017-07-17T10:21:48.606Z,28.80
2017-07-17T10:24:17.087Z,27.80
2017-07-17T10:26:45.572Z,26.90
2017-07-17T10:29:14.016Z,23.40
2017-07-17T10:31:42.464Z,21.40
2017-07-17T10:34:10.926Z,25.40
2017-07-17T10:36:39.400Z,21.00
2017-07-17T10:39:07.839Z,26.70
2017-07-17T10:41:36.328Z,25.20
2017-07-17T10:44:04.897Z,25.40
2017-07-17T10:46:33.367Z,22.80
2017-07-17T10:49:01.828Z,21.90
2017-07-17T10:51:30.296Z,22.70
2017-07-17T10:53:58.775Z,22.70
2017-07-17T10:56:27.213Z,20.80
2017-07-17T10:58:55.650Z,23.50
2017-07-17T11:01:24.876Z,25.50
2017-07-17T11:03:53.343Z,25.40
2017-07-17T11:06:21.819Z,28.90
2017-07-17T11:08:50.267Z,27.70
2017-07-17T11:11:18.718Z,33.40
2017-07-17T11:13:47.230Z,29.70
2017-07-17T11:16:15.726Z,31.20
2017-07-17T11:18:44.189Z,23.80
2017-07-17T11:21:13.108Z,27.60
2017-07-17T11:23:42.506Z,29.30
2017-07-17T11:26:10.954Z,34.00
2017-07-17T11:28:39.416Z,27.90
2017-07-17T11:31:07.911Z,28.90
2017-07-17T11:33:36.375Z,30.40
2017-07-17T11:36:04.852Z,28.50
2017-07-17T11:38:33.325Z,27.10
2017-07-17T11:41:01.764Z,34.90
2017-07-17T11:43:30.253Z,28.30
2017-07-17T11:56:14.727Z,27.90
2017-07-17T11:58:43.183Z,34.50
2017-07-17T12:01:12.414Z,36.90
2017-07-17T12:03:40.905Z,37.00
2017-07-17T12:06:09.403Z,33.40
2017-07-17T12:08:38.047Z,35.90
2017-07-17T12:11:06.297Z,34.60
2017-07-17T12:13:34.726Z,31.60
2017-07-17T12:16:03.158Z,28.90
2017-07-17T12:18:31.601Z,32.60
2017-07-17T12:21:00.085Z,36.70
2017-07-17T12:23:28.553Z,34.10
2017-07-17T12:25:56.974Z,32.80
2017-07-17T12:28:25.519Z,38.60
2017-07-17T12:30:53.939Z,33.30
2017-07-17T12:33:22.366Z,33.80
2017-07-17T12:35:51.009Z,28.80
2017-07-17T12:38:19.420Z,33.40
2017-07-17T12:40:47.830Z,31.80
2017-07-17T12:43:16.299Z,29.10
2017-07-17T12:45:44.738Z,31.10
2017-07-17T12:48:13.171Z,32.50
2017-07-17T12:50:41.602Z,32.20
2017-07-17T12:53:10.051Z,34.10
2017-07-17T12:55:38.490Z,27.90
2017-07-17T12:58:06.926Z,32.20
2017-07-17T13:00:35.442Z,36.40
2017-07-17T13:03:03.890Z,34.90
2017-07-17T13:05:32.404Z,33.30
2017-07-17T13:08:08.192Z,30.40
2017-07-17T13:10:36.689Z,28.50
2017-07-17T13:13:05.115Z,28.70
2017-07-17T13:15:33.549Z,30.60
2017-07-17T13:18:02.060Z,32.90
2017-07-17T13:20:33.034Z,37.00
2017-07-17T13:23:01.498Z,33.40
2017-07-17T13:25:30.175Z,37.50
2017-07-17T13:27:58.868Z,30.80
2017-07-17T13:30:29.046Z,37.80
2017-07-17T13:32:57.540Z,30.70
2017-07-17T13:35:26.199Z,39.20
2017-07-17T13:37:54.632Z,31.60
2017-07-17T13:40:23.135Z,29.90
2017-07-17T13:42:53.038Z,30.90
2017-07-17T13:45:24.259Z,30.80
2017-07-17T13:47:52.794Z,31.40
2017-07-17T13:50:21.284Z,30.30
2017-07-17T13:52:50.550Z,35.20
2017-07-17T13:55:21.235Z,35.30
2017-07-17T13:57:49.641Z,32.00
2017-07-17T14:00:18.092Z,34.00
2017-07-17T14:02:46.563Z,36.40
2017-07-17T14:05:14.992Z,33.80
2017-07-17T14:07:43.434Z,36.40
2017-07-17T14:10:11.834Z,35.70
2017-07-17T14:12:40.243Z,39.50
2017-07-17T14:15:08.670Z,34.20
2017-07-17T14:17:37.077Z,29.80
2017-07-17T14:20:05.474Z,32.20
2017-07-17T14:22:33.911Z,31.10
2017-07-17T14:25:02.321Z,30.50
2017-07-17T14:27:30.725Z,33.90
2017-07-17T14:29:59.168Z,37.90
2017-07-17T14:32:27.565Z,32.60
2017-07-17T14:34:55.965Z,31.70
2017-07-17T14:37:24.406Z,30.20
2017-07-17T14:39:52.829Z,30.90
2017-07-17T14:42:21.225Z,36.10
2017-07-17T14:44:49.689Z,30.10
2017-07-17T14:47:18.098Z,33.00
2017-07-17T14:49:46.539Z,30.60
2017-07-17T14:52:14.974Z,33.40
2017-07-17T14:54:43.426Z,37.90
2017-07-17T14:57:11.823Z,36.50
2017-07-17T14:59:40.276Z,33.90
2017-07-17T15:02:08.689Z,33.30
2017-07-17T15:04:37.107Z,34.40
2017-07-17T15:07:05.558Z,33.80
2017-07-17T15:09:33.966Z,37.20
2017-07-17T15:12:02.399Z,35.70
2017-07-17T15:14:30.858Z,33.90
2017-07-17T15:16:59.306Z,32.30
2017-07-17T15:19:27.977Z,32.30
2017-07-17T15:21:56.406Z,32.20
2017-07-17T15:24:24.821Z,33.00
2017-07-17T15:26:53.309Z,34.00
2017-07-17T15:29:21.786Z,34.10
2017-07-17T15:31:50.233Z,36.20
2017-07-17T15:34:21.576Z,34.20
2017-07-17T15:36:50.017Z,37.40
2017-07-17T15:39:18.686Z,32.90
2017-07-17T15:41:47.145Z,38.40
2017-07-17T15:44:15.558Z,37.90
2017-07-17T15:46:43.965Z,38.20
2017-07-17T15:49:12.403Z,33.70
2017-07-17T15:51:40.828Z,35.30
2017-07-17T15:54:09.253Z,34.20
2017-07-17T15:56:37.730Z,33.60
2017-07-17T15:59:06.153Z,35.10
2017-07-17T16:01:34.601Z,34.40
2017-07-17T16:04:03.692Z,37.40
2017-07-17T16:06:32.097Z,36.50
2017-07-17T16:09:01.161Z,34.60
2017-07-17T16:11:29.606Z,35.40
2017-07-17T16:13:58.026Z,35.40
2017-07-17T16:16:26.431Z,35.80
2017-07-17T16:18:54.869Z,38.50
2017-07-17T16:21:23.302Z,38.00
2017-07-17T16:23:51.751Z,36.10
2017-07-17T16:26:20.929Z,37.60
2017-07-17T16:28:49.437Z,36.50
2017-07-17T16:31:17.846Z,40.10
2017-07-17T16:33:46.264Z,41.00
2017-07-17T16:36:14.612Z,38.70
2017-07-17T16:38:43.085Z,38.30
2017-07-17T16:41:14.342Z,44.30
2017-07-17T16:43:42.810Z,40.70
2017-07-17T16:46:11.262Z,41.50
2017-07-17T16:48:39.706Z,39.30
2017-07-17T16:51:08.187Z,38.80
2017-07-17T16:53:36.603Z,44.20
2017-07-17T16:56:05.020Z,42.20
2017-07-17T16:58:33.503Z,44.10
2017-07-17T17:01:01.937Z,47.10
2017-07-17T17:03:30.382Z,44.90
2017-07-17T17:05:58.826Z,46.10
2017-07-17T17:08:27.243Z,44.80
2017-07-17T17:10:55.691Z,44.20
2017-07-17T17:13:24.142Z,43.40
2017-07-17T17:15:52.680Z,43.90
2017-07-17T17:18:21.124Z,44.60
2017-07-17T17:20:49.569Z,45.70
2017-07-17T17:23:18.022Z,46.20
2017-07-17T17:25:46.442Z,47.10
2017-07-17T17:28:15.199Z,48.20
2017-07-17T17:30:43.667Z,48.00
2017-07-17T17:33:11.745Z,48.10
2017-07-17T17:35:40.227Z,48.00
2017-07-17T17:38:08.691Z,49.10
2017-07-17T17:40:37.145Z,48.50
2017-07-17T17:43:05.640Z,51.20
2017-07-17T17:45:34.111Z,49.50
2017-07-17T17:48:02.553Z,50.70
2017-07-17T17:50:31.034Z,52.00
2017-07-17T17:52:59.454Z,53.50
2017-07-17T17:55:27.887Z,54.50
2017-07-17T17:57:56.339Z,57.20
2017-07-17T18:00:24.760Z,57.20
2017-07-17T18:02:53.193Z,58.70
2017-07-17T18:05:22.122Z,60.40
2017-07-17T18:07:50.809Z,60.80
2017-07-17T18:10:19.309Z,60.30
2017-07-17T18:12:47.773Z,61.30
2017-07-17T18:15:16.226Z,61.70
2017-07-17T18:17:44.999Z,61.80
2017-07-17T18:20:13.488Z,60.50
2017-07-17T18:22:41.903Z,61.20
2017-07-17T18:25:10.308Z,61.60
2017-07-17T18:27:38.789Z,62.10
2017-07-17T18:30:07.254Z,61.70
2017-07-17T18:32:36.844Z,63.60
2017-07-17T18:35:05.326Z,63.00
2017-07-17T18:37:33.764Z,64.20
2017-07-17T18:40:02.175Z,64.50
2017-07-17T18:42:30.648Z,64.80
2017-07-17T18:44:59.091Z,65.40
2017-07-17T18:47:27.507Z,66.40
2017-07-17T18:49:55.969Z,66.70
2017-07-17T18:52:24.452Z,66.10
2017-07-17T18:54:52.954Z,66.00
2017-07-17T18:57:21.435Z,66.70
2017-07-17T18:59:49.866Z,68.10
2017-07-17T19:02:18.327Z,69.00
2017-07-17T19:04:46.750Z,68.20
2017-07-17T19:07:15.175Z,67.80
2017-07-17T19:09:43.653Z,68.70
2017-07-17T19:12:12.109Z,69.90
2017-07-17T19:14:40.530Z,69.00
2017-07-17T19:17:09.071Z,69.70
2017-07-17T19:19:37.472Z,68.40
2017-07-17T19:22:05.889Z,69.30
2017-07-17T19:24:34.333Z,69.20
2017-07-17T19:27:03.754Z,70.10
2017-07-17T19:29:32.190Z,70.10
2017-07-17T19:32:00.671Z,70.60
2017-07-17T19:34:29.140Z,70.60
2017-07-17T19:36:57.564Z,71.60
2017-07-17T19:39:25.990Z,72.30
2017-07-17T19:41:54.406Z,71.60
2017-07-17T19:44:22.811Z,71.70
2017-07-17T19:46:51.247Z,73.20
2017-07-17T19:49:19.650Z,73.40
2017-07-17T19:51:48.075Z,74.10
2017-07-17T19:54:18.305Z,75.90
2017-07-17T19:56:46.706Z,75.00
2017-07-17T19:59:15.119Z,74.80
2017-07-17T20:01:43.570Z,75.60
2017-07-17T20:04:12.024Z,75.20
2017-07-17T20:06:41.957Z,75.40
2017-07-17T20:09:10.385Z,76.10
2017-07-17T20:11:38.798Z,75.70
2017-07-17T20:14:07.204Z,75.20
2017-07-17T20:16:35.637Z,75.70
2017-07-17T20:19:04.059Z,76.00
2017-07-17T20:21:32.466Z,76.00
2017-07-17T20:24:00.911Z,75.80
2017-07-17T20:26:29.314Z,76.00
2017-07-17T20:28:57.737Z,76.70
2017-07-17T20:31:26.164Z,76.80
2017-07-17T20:33:54.570Z,77.80
2017-07-17T20:36:22.978Z,77.40
2017-07-17T20:38:51.470Z,77.90
2017-07-17T20:41:19.906Z,79.50
2017-07-17T20:43:48.538Z,78.70
2017-07-17T20:46:17.023Z,78.60
2017-07-17T20:48:45.463Z,79.70
2017-07-17T20:51:13.906Z,79.60
2017-07-17T20:53:42.379Z,79.70
2017-07-17T20:56:10.822Z,79.50
2017-07-17T20:58:39.237Z,79.80
2017-07-17T21:01:07.663Z,80.00
2017-07-17T21:03:36.074Z,80.30
2017-07-17T21:06:04.483Z,80.50
2017-07-17T21:08:32.943Z,81.00
2017-07-17T21:11:01.352Z,80.90
2017-07-17T21:13:29.786Z,80.70
2017-07-17T21:15:58.221Z,81.00
2017-07-17T21:18:26.632Z,81.60
2017-07-17T21:20:55.735Z,81.70
2017-07-17T21:23:24.193Z,82.00
2017-07-17T21:25:53.282Z,81.70
2017-07-17T21:28:21.706Z,82.00
2017-07-17T21:30:50.164Z,81.80
2017-07-17T21:33:18.586Z,82.30
2017-07-17T21:35:46.990Z,81.60
2017-07-17T21:38:15.613Z,81.70
2017-07-17T21:40:44.050Z,81.90
2017-07-17T21:43:12.481Z,82.20
2017-07-17T21:45:40.909Z,83.20
2017-07-17T21:48:09.317Z,82.90
2017-07-17T21:50:37.733Z,83.00
2017-07-17T21:53:06.180Z,83.10
2017-07-17T21:55:34.576Z,83.20
2017-07-17T21:58:02.987Z,82.80
2017-07-17T22:00:31.407Z,83.20
2017-07-17T22:03:00.151Z,82.80
2017-07-17T22:05:28.564Z,83.90
2017-07-17T22:07:57.085Z,83.80
2017-07-17T22:10:25.494Z,83.80
2017-07-17T22:12:53.893Z,84.30
2017-07-17T22:15:22.319Z,84.00
2017-07-17T22:17:50.749Z,84.60
2017-07-17T22:20:19.159Z,84.40
2017-07-17T22:22:47.594Z,84.80
2017-07-17T22:25:15.303Z,84.90
2017-07-17T22:27:43.718Z,84.80
2017-07-17T22:30:12.395Z,84.30
2017-07-17T22:32:40.802Z,85.10
2017-07-17T22:35:09.214Z,85.10
2017-07-17T22:37:37.648Z,84.90
2017-07-17T22:40:06.062Z,85.50
2017-07-17T22:42:34.476Z,85.50
2017-07-17T22:45:02.906Z,85.60
2017-07-17T22:47:31.314Z,85.80
2017-07-17T22:49:59.718Z,85.50
2017-07-17T22:52:28.155Z,85.70
2017-07-17T22:54:56.557Z,85.90
2017-07-17T22:57:24.962Z,86.00
2017-07-17T22:59:53.421Z,86.20
2017-07-17T23:02:21.822Z,86.80
2017-07-17T23:04:50.245Z,86.40
2017-07-17T23:07:18.685Z,86.60
2017-07-17T23:09:47.857Z,86.30
2017-07-17T23:12:16.270Z,86.30
2017-07-17T23:14:44.687Z,86.20
2017-07-17T23:17:13.093Z,86.10
2017-07-17T23:19:41.548Z,86.50
2017-07-17T23:22:10.624Z,86.80
2017-07-17T23:24:39.026Z,86.30
2017-07-17T23:27:07.472Z,86.60
2017-07-17T23:29:35.889Z,86.60
2017-07-17T23:32:04.289Z,86.80
2017-07-17T23:34:32.711Z,87.20
2017-07-17T23:37:01.114Z,86.90
2017-07-17T23:39:29.539Z,86.90
2017-07-17T23:41:58.156Z,87.30
2017-07-17T23:44:26.569Z,87.20
2017-07-17T23:46:55.648Z,87.40
2017-07-17T23:49:24.085Z,87.30
2017-07-17T23:51:52.493Z,87.50
2017-07-17T23:54:20.903Z,87.50
2017-07-17T23:56:49.329Z,87.50
2017-07-17T23:59:17.742Z,87.30
